TVS2MZ LKPR-EBBR
Flight info
| Callsign | TVS2MZ |
|---|---|
| Flight time | 1h 6m |
| Altitude | 32000 |
| Route | BALTU4B/30 BALTU DCT DONAD DCT RAPET Z93 KODUK DCT MARZA DCT TEKTU DCT TESGA DCT UMUPU T880 ADMUM/N0361F240 T880 BATTY |
| Aircraft | B738/M-SDFGHIJ1LORVWXYZ/LB1 |
Departure
| Time | 2026-05-07 19:21 |
|---|---|
| Airport | Václav Havel Airport Prague (LKPR) |
Arrival
| Time | 2026-05-07 20:27 |
|---|---|
| Airport | Brussels Airport (EBBR) |
| Time | Latitude | Longitude | Altitude | Speed | Heading |
|---|---|---|---|---|---|
| 2026-05-07 18:41 | 50.10389 | 14.26690 | 1173 ft | 0 kts | 35° |
| 2026-05-07 19:11 | 50.10383 | 14.26683 | 1169 ft | 3 kts | 30° |
| 2026-05-07 19:11 | 50.10367 | 14.26672 | 1171 ft | 2 kts | 7° |
| 2026-05-07 19:11 | 50.10354 | 14.26673 | 1170 ft | 2 kts | 333° |
| 2026-05-07 19:12 | 50.10342 | 14.26688 | 1168 ft | 2 kts | 311° |
| 2026-05-07 19:12 | 50.10334 | 14.26702 | 1168 ft | 1 kts | 306° |
| 2026-05-07 19:12 | 50.10329 | 14.26713 | 1170 ft | 1 kts | 304° |
| 2026-05-07 19:12 | 50.10324 | 14.26724 | 1169 ft | 1 kts | 303° |
| 2026-05-07 19:13 | 50.10323 | 14.26728 | 1169 ft | 0 kts | 303° |
| 2026-05-07 19:15 | 50.10323 | 14.26726 | 1169 ft | 1 kts | 303° |
| 2026-05-07 19:15 | 50.10337 | 14.26694 | 1168 ft | 6 kts | 303° |
| 2026-05-07 19:15 | 50.10346 | 14.26631 | 1169 ft | 7 kts | 250° |
| 2026-05-07 19:15 | 50.10311 | 14.26583 | 1172 ft | 7 kts | 212° |
| 2026-05-07 19:16 | 50.10264 | 14.26537 | 1173 ft | 9 kts | 204° |
| 2026-05-07 19:16 | 50.10216 | 14.26564 | 1173 ft | 8 kts | 123° |
| 2026-05-07 19:16 | 50.10165 | 14.26670 | 1177 ft | 17 kts | 128° |
| 2026-05-07 19:16 | 50.10092 | 14.26822 | 1185 ft | 17 kts | 128° |
| 2026-05-07 19:17 | 50.10020 | 14.26970 | 1194 ft | 17 kts | 125° |
| 2026-05-07 19:17 | 50.09946 | 14.27125 | 1198 ft | 19 kts | 127° |
| 2026-05-07 19:17 | 50.09861 | 14.27296 | 1201 ft | 22 kts | 128° |
| 2026-05-07 19:17 | 50.09750 | 14.27472 | 1204 ft | 23 kts | 136° |
| 2026-05-07 19:18 | 50.09639 | 14.27643 | 1208 ft | 22 kts | 136° |
| 2026-05-07 19:18 | 50.09530 | 14.27808 | 1211 ft | 22 kts | 135° |
| 2026-05-07 19:18 | 50.09425 | 14.27969 | 1214 ft | 21 kts | 136° |
| 2026-05-07 19:18 | 50.09323 | 14.28126 | 1214 ft | 20 kts | 135° |
| 2026-05-07 19:19 | 50.09220 | 14.28269 | 1211 ft | 20 kts | 152° |
| 2026-05-07 19:19 | 50.09108 | 14.28197 | 1209 ft | 19 kts | 237° |
| 2026-05-07 19:19 | 50.09113 | 14.28027 | 1208 ft | 14 kts | 303° |
| 2026-05-07 19:19 | 50.09122 | 14.28008 | 1209 ft | 0 kts | 306° |
| 2026-05-07 19:20 | 50.09163 | 14.27921 | 1210 ft | 36 kts | 307° |
| 2026-05-07 19:20 | 50.09462 | 14.27302 | 1207 ft | 106 kts | 307° |
| 2026-05-07 19:20 | 50.10027 | 14.26135 | 1217 ft | 161 kts | 307° |
| 2026-05-07 19:21 | 50.10726 | 14.24664 | 1881 ft | 167 kts | 308° |
| 2026-05-07 19:21 | 50.11416 | 14.23227 | 2823 ft | 169 kts | 309° |
| 2026-05-07 19:21 | 50.12138 | 14.21729 | 3542 ft | 183 kts | 306° |
| 2026-05-07 19:21 | 50.12934 | 14.20024 | 3907 ft | 209 kts | 307° |
| 2026-05-07 19:22 | 50.13854 | 14.18169 | 4448 ft | 222 kts | 307° |
| 2026-05-07 19:22 | 50.14825 | 14.16195 | 5009 ft | 241 kts | 306° |
| 2026-05-07 19:22 | 50.15911 | 14.13930 | 5074 ft | 280 kts | 304° |
| 2026-05-07 19:22 | 50.16739 | 14.11122 | 5776 ft | 288 kts | 280° |
| 2026-05-07 19:23 | 50.16873 | 14.08068 | 7066 ft | 274 kts | 270° |
| 2026-05-07 19:23 | 50.16835 | 14.05194 | 8513 ft | 257 kts | 268° |
| 2026-05-07 19:23 | 50.16817 | 14.02388 | 9407 ft | 264 kts | 269° |
| 2026-05-07 19:23 | 50.16820 | 13.99420 | 9875 ft | 284 kts | 270° |
| 2026-05-07 19:24 | 50.16852 | 13.96275 | 10518 ft | 292 kts | 270° |
| 2026-05-07 19:24 | 50.16883 | 13.93128 | 11313 ft | 297 kts | 270° |
| 2026-05-07 19:24 | 50.16918 | 13.89856 | 11852 ft | 312 kts | 271° |
| 2026-05-07 19:24 | 50.16974 | 13.86349 | 12169 ft | 332 kts | 271° |
| 2026-05-07 19:25 | 50.17039 | 13.82709 | 12857 ft | 339 kts | 271° |
| 2026-05-07 19:25 | 50.17108 | 13.79010 | 13647 ft | 343 kts | 271° |
| 2026-05-07 19:25 | 50.17179 | 13.75276 | 14421 ft | 345 kts | 271° |
| 2026-05-07 19:25 | 50.17251 | 13.71522 | 15151 ft | 349 kts | 271° |
| 2026-05-07 19:26 | 50.17322 | 13.67708 | 15807 ft | 353 kts | 271° |
| 2026-05-07 19:26 | 50.17393 | 13.63863 | 16441 ft | 357 kts | 271° |
| 2026-05-07 19:26 | 50.17462 | 13.60027 | 17198 ft | 359 kts | 272° |
| 2026-05-07 19:26 | 50.17531 | 13.56123 | 17959 ft | 361 kts | 272° |
| 2026-05-07 19:27 | 50.17600 | 13.52187 | 18619 ft | 365 kts | 272° |
| 2026-05-07 19:27 | 50.17668 | 13.48214 | 19229 ft | 368 kts | 272° |
| 2026-05-07 19:27 | 50.17736 | 13.44208 | 19856 ft | 371 kts | 272° |
| 2026-05-07 19:27 | 50.17802 | 13.40173 | 20464 ft | 374 kts | 272° |
| 2026-05-07 19:28 | 50.17868 | 13.36105 | 21072 ft | 377 kts | 272° |
| 2026-05-07 19:28 | 50.17932 | 13.32004 | 21669 ft | 379 kts | 272° |
| 2026-05-07 19:28 | 50.17996 | 13.27882 | 22242 ft | 383 kts | 272° |
| 2026-05-07 19:28 | 50.18059 | 13.23711 | 22806 ft | 386 kts | 273° |
| 2026-05-07 19:29 | 50.18121 | 13.19511 | 23367 ft | 389 kts | 273° |
| 2026-05-07 19:29 | 50.18181 | 13.15333 | 23848 ft | 392 kts | 273° |
| 2026-05-07 19:29 | 50.18240 | 13.11072 | 24309 ft | 395 kts | 273° |
| 2026-05-07 19:29 | 50.18299 | 13.06772 | 24766 ft | 397 kts | 273° |
| 2026-05-07 19:30 | 50.18356 | 13.02448 | 25215 ft | 400 kts | 273° |
| 2026-05-07 19:30 | 50.18412 | 12.98091 | 25658 ft | 403 kts | 273° |
| 2026-05-07 19:30 | 50.18466 | 12.93711 | 26088 ft | 405 kts | 273° |
| 2026-05-07 19:30 | 50.18520 | 12.89300 | 26517 ft | 407 kts | 272° |
| 2026-05-07 19:31 | 50.18571 | 12.84885 | 27063 ft | 407 kts | 272° |
| 2026-05-07 19:31 | 50.18620 | 12.80491 | 27695 ft | 403 kts | 272° |
| 2026-05-07 19:31 | 50.18668 | 12.76124 | 28316 ft | 402 kts | 272° |
| 2026-05-07 19:31 | 50.18714 | 12.71778 | 28852 ft | 401 kts | 272° |
| 2026-05-07 19:32 | 50.18758 | 12.67483 | 29369 ft | 401 kts | 272° |
| 2026-05-07 19:32 | 50.18801 | 12.63144 | 29909 ft | 400 kts | 272° |
| 2026-05-07 19:32 | 50.18842 | 12.58812 | 30396 ft | 399 kts | 272° |
| 2026-05-07 19:32 | 50.18881 | 12.54565 | 30787 ft | 399 kts | 272° |
| 2026-05-07 19:33 | 50.18920 | 12.50178 | 31156 ft | 400 kts | 272° |
| 2026-05-07 19:33 | 50.18956 | 12.45909 | 31554 ft | 399 kts | 271° |
| 2026-05-07 19:33 | 50.18991 | 12.41575 | 31975 ft | 399 kts | 271° |
| 2026-05-07 19:33 | 50.19025 | 12.37220 | 32044 ft | 405 kts | 271° |
| 2026-05-07 19:34 | 50.19056 | 12.28448 | 32055 ft | 402 kts | 270° |
| 2026-05-07 19:34 | 50.19015 | 12.19802 | 32072 ft | 398 kts | 270° |
| 2026-05-07 19:35 | 50.18970 | 12.11142 | 32077 ft | 401 kts | 270° |
| 2026-05-07 19:35 | 50.18926 | 12.02431 | 32076 ft | 402 kts | 270° |
| 2026-05-07 19:36 | 50.18878 | 11.93673 | 32077 ft | 404 kts | 270° |
| 2026-05-07 19:36 | 50.18825 | 11.84961 | 32076 ft | 404 kts | 270° |
| 2026-05-07 19:37 | 50.18837 | 11.76216 | 32073 ft | 403 kts | 271° |
| 2026-05-07 19:37 | 50.18980 | 11.67500 | 32069 ft | 401 kts | 272° |
| 2026-05-07 19:38 | 50.19119 | 11.58817 | 32070 ft | 400 kts | 271° |
| 2026-05-07 19:38 | 50.19234 | 11.50160 | 32066 ft | 399 kts | 271° |
| 2026-05-07 19:39 | 50.19337 | 11.41506 | 32066 ft | 399 kts | 271° |
| 2026-05-07 19:39 | 50.19416 | 11.34312 | 32067 ft | 399 kts | 271° |
| 2026-05-07 19:40 | 50.19519 | 11.24228 | 32058 ft | 400 kts | 271° |
| 2026-05-07 19:40 | 50.19602 | 11.15532 | 32063 ft | 401 kts | 271° |
| 2026-05-07 19:41 | 50.19679 | 11.06835 | 32064 ft | 401 kts | 271° |
| 2026-05-07 19:41 | 50.19749 | 10.98122 | 32069 ft | 402 kts | 271° |
| 2026-05-07 19:42 | 50.19591 | 10.90887 | 32064 ft | 402 kts | 264° |
| 2026-05-07 19:42 | 50.18717 | 10.80844 | 32065 ft | 402 kts | 262° |
| 2026-05-07 19:43 | 50.17937 | 10.72224 | 32075 ft | 401 kts | 263° |
| 2026-05-07 19:43 | 50.17186 | 10.63615 | 32071 ft | 401 kts | 263° |
| 2026-05-07 19:44 | 50.16569 | 10.56454 | 32078 ft | 400 kts | 263° |
| 2026-05-07 19:44 | 50.15702 | 10.46468 | 32079 ft | 400 kts | 263° |
| 2026-05-07 19:45 | 50.14951 | 10.37888 | 32081 ft | 399 kts | 263° |
| 2026-05-07 19:45 | 50.14352 | 10.30757 | 32074 ft | 399 kts | 267° |
| 2026-05-07 19:46 | 50.14824 | 10.22204 | 32077 ft | 397 kts | 285° |
| 2026-05-07 19:46 | 50.16342 | 10.13922 | 32080 ft | 397 kts | 286° |
| 2026-05-07 19:47 | 50.17907 | 10.05650 | 32077 ft | 398 kts | 286° |
| 2026-05-07 19:47 | 50.19430 | 9.97408 | 32087 ft | 398 kts | 286° |
| 2026-05-07 19:48 | 50.20941 | 9.89094 | 32082 ft | 398 kts | 285° |
| 2026-05-07 19:48 | 50.22441 | 9.80766 | 32082 ft | 399 kts | 285° |
| 2026-05-07 19:49 | 50.23935 | 9.72425 | 32081 ft | 399 kts | 285° |
| 2026-05-07 19:49 | 50.25424 | 9.64083 | 32085 ft | 398 kts | 285° |
| 2026-05-07 19:50 | 50.26895 | 9.55800 | 32078 ft | 398 kts | 285° |
| 2026-05-07 19:50 | 50.28368 | 9.47465 | 32075 ft | 398 kts | 285° |
| 2026-05-07 19:51 | 50.29834 | 9.39133 | 32078 ft | 397 kts | 285° |
| 2026-05-07 19:51 | 50.31294 | 9.30797 | 32078 ft | 397 kts | 285° |
| 2026-05-07 19:52 | 50.32736 | 9.22530 | 32074 ft | 396 kts | 285° |
| 2026-05-07 19:52 | 50.34180 | 9.14212 | 32076 ft | 396 kts | 285° |
| 2026-05-07 19:53 | 50.35754 | 9.05949 | 32076 ft | 396 kts | 288° |
| 2026-05-07 19:53 | 50.37425 | 8.97731 | 32075 ft | 396 kts | 288° |
| 2026-05-07 19:54 | 50.39061 | 8.89562 | 32079 ft | 396 kts | 287° |
| 2026-05-07 19:54 | 50.40687 | 8.81326 | 32077 ft | 396 kts | 287° |
| 2026-05-07 19:55 | 50.42306 | 8.73075 | 32085 ft | 396 kts | 287° |
| 2026-05-07 19:55 | 50.43919 | 8.64828 | 32085 ft | 396 kts | 287° |
| 2026-05-07 19:56 | 50.45129 | 8.56426 | 32093 ft | 395 kts | 279° |
| 2026-05-07 19:56 | 50.45950 | 8.47879 | 32091 ft | 396 kts | 278° |
| 2026-05-07 19:57 | 50.46761 | 8.39333 | 32087 ft | 396 kts | 278° |
| 2026-05-07 19:57 | 50.47586 | 8.30840 | 32087 ft | 396 kts | 278° |
| 2026-05-07 19:58 | 50.48421 | 8.22286 | 32080 ft | 396 kts | 278° |
| 2026-05-07 19:58 | 50.49252 | 8.13729 | 32081 ft | 396 kts | 278° |
| 2026-05-07 19:59 | 50.50076 | 8.05181 | 32085 ft | 396 kts | 278° |
| 2026-05-07 19:59 | 50.50895 | 7.96624 | 32082 ft | 396 kts | 278° |
| 2026-05-07 20:00 | 50.51705 | 7.88081 | 32079 ft | 395 kts | 278° |
| 2026-05-07 20:00 | 50.52501 | 7.79618 | 32070 ft | 390 kts | 278° |
| 2026-05-07 20:01 | 50.53278 | 7.71304 | 32069 ft | 381 kts | 278° |
| 2026-05-07 20:01 | 50.54044 | 7.63030 | 31791 ft | 377 kts | 278° |
| 2026-05-07 20:02 | 50.54412 | 7.59032 | 31602 ft | 366 kts | 277° |
| 2026-05-07 20:02 | 50.54774 | 7.55094 | 31288 ft | 362 kts | 278° |
| 2026-05-07 20:02 | 50.55125 | 7.51253 | 30940 ft | 359 kts | 277° |
| 2026-05-07 20:02 | 50.55478 | 7.47376 | 30598 ft | 357 kts | 277° |
| 2026-05-07 20:03 | 50.55820 | 7.43520 | 30254 ft | 355 kts | 276° |
| 2026-05-07 20:03 | 50.55947 | 7.39661 | 29869 ft | 352 kts | 270° |
| 2026-05-07 20:03 | 50.55967 | 7.35823 | 29484 ft | 350 kts | 270° |
| 2026-05-07 20:03 | 50.55974 | 7.32022 | 29134 ft | 346 kts | 270° |
| 2026-05-07 20:04 | 50.55987 | 7.28254 | 28756 ft | 343 kts | 270° |
| 2026-05-07 20:04 | 50.56008 | 7.24519 | 28398 ft | 340 kts | 270° |
| 2026-05-07 20:04 | 50.56033 | 7.20814 | 28051 ft | 337 kts | 270° |
| 2026-05-07 20:04 | 50.56056 | 7.17134 | 27684 ft | 335 kts | 270° |
| 2026-05-07 20:05 | 50.56014 | 7.13483 | 27327 ft | 333 kts | 268° |
| 2026-05-07 20:05 | 50.55925 | 7.09892 | 26988 ft | 332 kts | 267° |
| 2026-05-07 20:05 | 50.55830 | 7.06260 | 26641 ft | 333 kts | 267° |
| 2026-05-07 20:05 | 50.55742 | 7.02587 | 26308 ft | 341 kts | 268° |
| 2026-05-07 20:06 | 50.55657 | 6.98821 | 25959 ft | 347 kts | 268° |
| 2026-05-07 20:06 | 50.55800 | 6.95049 | 25610 ft | 346 kts | 279° |
| 2026-05-07 20:06 | 50.56395 | 6.91392 | 25278 ft | 344 kts | 285° |
| 2026-05-07 20:06 | 50.57067 | 6.87789 | 24903 ft | 343 kts | 285° |
| 2026-05-07 20:07 | 50.57747 | 6.84199 | 24517 ft | 342 kts | 285° |
| 2026-05-07 20:07 | 50.58420 | 6.80625 | 24118 ft | 337 kts | 285° |
| 2026-05-07 20:07 | 50.59068 | 6.77156 | 23566 ft | 335 kts | 285° |
| 2026-05-07 20:07 | 50.59720 | 6.73636 | 22878 ft | 335 kts | 285° |
| 2026-05-07 20:08 | 50.60364 | 6.70130 | 22281 ft | 332 kts | 285° |
| 2026-05-07 20:08 | 50.60999 | 6.66660 | 21724 ft | 329 kts | 285° |
| 2026-05-07 20:08 | 50.61631 | 6.63184 | 21239 ft | 331 kts | 285° |
| 2026-05-07 20:08 | 50.62263 | 6.59702 | 20823 ft | 330 kts | 285° |
| 2026-05-07 20:09 | 50.62890 | 6.56235 | 20464 ft | 329 kts | 285° |
| 2026-05-07 20:09 | 50.63515 | 6.52777 | 20111 ft | 327 kts | 285° |
| 2026-05-07 20:09 | 50.64125 | 6.49389 | 19763 ft | 325 kts | 285° |
| 2026-05-07 20:10 | 50.65349 | 6.42573 | 19084 ft | 322 kts | 285° |
| 2026-05-07 20:10 | 50.65955 | 6.39187 | 18743 ft | 321 kts | 285° |
| 2026-05-07 20:10 | 50.66559 | 6.35807 | 18409 ft | 319 kts | 285° |
| 2026-05-07 20:10 | 50.67158 | 6.32450 | 18028 ft | 318 kts | 285° |
| 2026-05-07 20:11 | 50.67755 | 6.29100 | 17664 ft | 316 kts | 285° |
| 2026-05-07 20:11 | 50.68346 | 6.25773 | 17317 ft | 314 kts | 285° |
| 2026-05-07 20:11 | 50.68932 | 6.22468 | 16984 ft | 312 kts | 284° |
| 2026-05-07 20:11 | 50.69514 | 6.19183 | 16650 ft | 310 kts | 284° |
| 2026-05-07 20:12 | 50.70090 | 6.15924 | 16322 ft | 309 kts | 284° |
| 2026-05-07 20:12 | 50.70662 | 6.12682 | 16016 ft | 316 kts | 284° |
| 2026-05-07 20:12 | 50.71274 | 6.09195 | 15695 ft | 342 kts | 284° |
| 2026-05-07 20:12 | 50.71915 | 6.05540 | 15310 ft | 346 kts | 284° |
| 2026-05-07 20:13 | 50.72558 | 6.01875 | 14925 ft | 346 kts | 284° |
| 2026-05-07 20:13 | 50.73198 | 5.98223 | 14551 ft | 345 kts | 284° |
| 2026-05-07 20:13 | 50.73834 | 5.94588 | 14184 ft | 343 kts | 284° |
| 2026-05-07 20:13 | 50.74465 | 5.90966 | 13812 ft | 342 kts | 284° |
| 2026-05-07 20:14 | 50.75093 | 5.87357 | 13417 ft | 340 kts | 284° |
| 2026-05-07 20:14 | 50.75709 | 5.83811 | 13031 ft | 339 kts | 284° |
| 2026-05-07 20:14 | 50.76329 | 5.80232 | 12665 ft | 337 kts | 284° |
| 2026-05-07 20:14 | 50.76944 | 5.76672 | 12305 ft | 335 kts | 284° |
| 2026-05-07 20:15 | 50.77556 | 5.73125 | 11947 ft | 334 kts | 284° |
| 2026-05-07 20:15 | 50.78166 | 5.69585 | 11593 ft | 333 kts | 284° |
| 2026-05-07 20:15 | 50.78770 | 5.66065 | 11245 ft | 332 kts | 284° |
| 2026-05-07 20:15 | 50.79387 | 5.62541 | 10889 ft | 332 kts | 286° |
| 2026-05-07 20:16 | 50.80072 | 5.59063 | 10538 ft | 332 kts | 287° |
| 2026-05-07 20:16 | 50.80788 | 5.55595 | 10225 ft | 330 kts | 288° |
| 2026-05-07 20:16 | 50.81497 | 5.52183 | 10077 ft | 324 kts | 288° |
| 2026-05-07 20:16 | 50.82196 | 5.48792 | 9702 ft | 325 kts | 288° |
| 2026-05-07 20:17 | 50.82881 | 5.45443 | 9354 ft | 325 kts | 287° |
| 2026-05-07 20:17 | 50.83570 | 5.42050 | 9007 ft | 324 kts | 287° |
| 2026-05-07 20:17 | 50.84255 | 5.38659 | 8665 ft | 324 kts | 287° |
| 2026-05-07 20:17 | 50.84938 | 5.35264 | 8329 ft | 323 kts | 287° |
| 2026-05-07 20:18 | 50.85617 | 5.31873 | 7992 ft | 323 kts | 287° |
| 2026-05-07 20:18 | 50.86285 | 5.28536 | 7643 ft | 311 kts | 287° |
| 2026-05-07 20:18 | 50.86922 | 5.25345 | 7322 ft | 297 kts | 287° |
| 2026-05-07 20:18 | 50.87530 | 5.22291 | 7028 ft | 285 kts | 287° |
| 2026-05-07 20:19 | 50.88115 | 5.19349 | 6734 ft | 275 kts | 287° |
| 2026-05-07 20:19 | 50.88672 | 5.16545 | 6456 ft | 265 kts | 287° |
| 2026-05-07 20:19 | 50.89215 | 5.13805 | 6164 ft | 257 kts | 287° |
| 2026-05-07 20:19 | 50.89740 | 5.11151 | 5892 ft | 249 kts | 287° |
| 2026-05-07 20:20 | 50.90240 | 5.08626 | 5642 ft | 246 kts | 287° |
| 2026-05-07 20:20 | 50.90734 | 5.06122 | 5380 ft | 255 kts | 287° |
| 2026-05-07 20:20 | 50.91269 | 5.03411 | 5096 ft | 261 kts | 287° |
| 2026-05-07 20:20 | 50.91814 | 5.00641 | 4798 ft | 265 kts | 287° |
| 2026-05-07 20:21 | 50.92364 | 4.97846 | 4475 ft | 266 kts | 287° |
| 2026-05-07 20:21 | 50.92911 | 4.95057 | 4195 ft | 264 kts | 287° |
| 2026-05-07 20:21 | 50.93451 | 4.92305 | 4039 ft | 261 kts | 287° |
| 2026-05-07 20:21 | 50.93984 | 4.89586 | 3982 ft | 261 kts | 287° |
| 2026-05-07 20:22 | 50.94522 | 4.86835 | 3800 ft | 260 kts | 287° |
| 2026-05-07 20:22 | 50.95051 | 4.84127 | 3666 ft | 255 kts | 287° |
| 2026-05-07 20:22 | 50.95560 | 4.81510 | 3552 ft | 241 kts | 287° |
| 2026-05-07 20:22 | 50.95935 | 4.79005 | 3302 ft | 228 kts | 269° |
| 2026-05-07 20:23 | 50.95552 | 4.76688 | 3139 ft | 209 kts | 246° |
| 2026-05-07 20:23 | 50.95037 | 4.74628 | 3001 ft | 194 kts | 249° |
| 2026-05-07 20:23 | 50.94580 | 4.72624 | 2999 ft | 194 kts | 250° |
| 2026-05-07 20:23 | 50.94119 | 4.70552 | 2632 ft | 199 kts | 250° |
| 2026-05-07 20:24 | 50.93661 | 4.68558 | 2372 ft | 191 kts | 249° |
| 2026-05-07 20:24 | 50.93202 | 4.66581 | 2099 ft | 188 kts | 249° |
| 2026-05-07 20:24 | 50.92766 | 4.64709 | 1877 ft | 174 kts | 249° |
| 2026-05-07 20:24 | 50.92364 | 4.62981 | 1603 ft | 160 kts | 249° |
| 2026-05-07 20:25 | 50.91985 | 4.61352 | 1397 ft | 158 kts | 249° |
| 2026-05-07 20:25 | 50.91604 | 4.59706 | 1192 ft | 160 kts | 250° |
| 2026-05-07 20:25 | 50.91218 | 4.58037 | 965 ft | 162 kts | 249° |
| 2026-05-07 20:25 | 50.90827 | 4.56362 | 742 ft | 161 kts | 250° |
| 2026-05-07 20:26 | 50.90446 | 4.54703 | 508 ft | 160 kts | 250° |
| 2026-05-07 20:26 | 50.90064 | 4.53070 | 299 ft | 157 kts | 250° |
| 2026-05-07 20:26 | 50.89697 | 4.51477 | 172 ft | 146 kts | 250° |
| 2026-05-07 20:26 | 50.89406 | 4.50210 | 175 ft | 102 kts | 250° |
| 2026-05-07 20:27 | 50.89239 | 4.49490 | 175 ft | 41 kts | 250° |
| 2026-05-07 20:27 | 50.89238 | 4.49305 | 174 ft | 10 kts | 292° |
| 2026-05-07 20:27 | 50.89263 | 4.49244 | 172 ft | 7 kts | 309° |
| 2026-05-07 20:27 | 50.89302 | 4.49174 | 168 ft | 1 kts | 309° |
| 2026-05-07 20:28 | 50.89314 | 4.49149 | 167 ft | 5 kts | 308° |
| 2026-05-07 20:28 | 50.89349 | 4.49109 | 165 ft | 7 kts | 345° |
| 2026-05-07 20:28 | 50.89401 | 4.49134 | 163 ft | 9 kts | 30° |
| 2026-05-07 20:28 | 50.89468 | 4.49151 | 161 ft | 11 kts | 7° |
| 2026-05-07 20:29 | 50.89552 | 4.49183 | 157 ft | 13 kts | 17° |
| 2026-05-07 20:29 | 50.89605 | 4.49222 | 154 ft | 9 kts | 32° |
| 2026-05-07 20:29 | 50.89669 | 4.49270 | 150 ft | 11 kts | 13° |
| 2026-05-07 20:29 | 50.89757 | 4.49306 | 145 ft | 15 kts | 12° |
| 2026-05-07 20:30 | 50.89839 | 4.49342 | 139 ft | 9 kts | 16° |
| 2026-05-07 20:30 | 50.89893 | 4.49364 | 136 ft | 0 kts | 9° |
| 2026-05-07 20:30 | 50.89894 | 4.49364 | 136 ft | 0 kts | 8° |
| 2026-05-07 20:30 | 50.89909 | 4.49369 | 135 ft | 5 kts | 9° |
| 2026-05-07 20:31 | 50.89969 | 4.49380 | 132 ft | 10 kts | 10° |
| 2026-05-07 20:31 | 50.90057 | 4.49428 | 130 ft | 16 kts | 17° |
| 2026-05-07 20:31 | 50.90174 | 4.49477 | 126 ft | 18 kts | 14° |
| 2026-05-07 20:31 | 50.90268 | 4.49514 | 122 ft | 11 kts | 13° |
| 2026-05-07 20:32 | 50.90341 | 4.49537 | 123 ft | 9 kts | 356° |
| 2026-05-07 20:32 | 50.90394 | 4.49483 | 121 ft | 9 kts | 309° |
| 2026-05-07 20:32 | 50.90416 | 4.49393 | 122 ft | 9 kts | 270° |
| 2026-05-07 20:32 | 50.90395 | 4.49303 | 123 ft | 9 kts | 243° |
| 2026-05-07 20:33 | 50.90370 | 4.49219 | 122 ft | 8 kts | 248° |
| 2026-05-07 20:33 | 50.90348 | 4.49135 | 120 ft | 8 kts | 246° |
| 2026-05-07 20:33 | 50.90325 | 4.49053 | 119 ft | 8 kts | 246° |
| 2026-05-07 20:33 | 50.90303 | 4.48975 | 120 ft | 8 kts | 245° |
| 2026-05-07 20:34 | 50.90281 | 4.48899 | 122 ft | 7 kts | 245° |
| 2026-05-07 20:34 | 50.90259 | 4.48826 | 121 ft | 7 kts | 246° |
| 2026-05-07 20:34 | 50.90239 | 4.48755 | 123 ft | 7 kts | 245° |
| 2026-05-07 20:34 | 50.90219 | 4.48685 | 119 ft | 7 kts | 245° |
| 2026-05-07 20:35 | 50.90199 | 4.48620 | 120 ft | 3 kts | 245° |
| 2026-05-07 20:35 | 50.90196 | 4.48608 | 122 ft | 2 kts | 245° |
| 2026-05-07 20:35 | 50.90193 | 4.48598 | 122 ft | 2 kts | 249° |
| 2026-05-07 20:36 | 50.90196 | 4.48578 | 122 ft | 2 kts | 294° |
| 2026-05-07 20:36 | 50.90213 | 4.48553 | 122 ft | 4 kts | 328° |
| 2026-05-07 20:36 | 50.90243 | 4.48531 | 119 ft | 5 kts | 336° |
| 2026-05-07 20:36 | 50.90260 | 4.48520 | 120 ft | 0 kts | 335° |